Time;durP1;ratioP1;P1;durP2;ratioP2;P2;SDS_P1;SDS_P2;PMS_P1;PMS_P2;Temp;Humidity;BMP_temperature;BMP_pressure;BME280_temperature;BME280_humidity;BME280_pressure;Samples;Min_cycle;Max_cycle;Signal;HPM_P1;HPM_P2
2022/03/04 00:01:34;;;;;;;10.40;6.50;;;-0.60;99.90;;;0.37;98.94;98341.84;5061143;28;20832;-79
2022/03/04 00:04:04;;;;;;;10.37;5.93;;;-0.60;99.90;;;0.30;99.04;98336.34;5057129;28;20948;-79
2022/03/04 00:06:32;;;;;;;9.67;5.70;;;-0.70;99.90;;;0.24;99.15;98341.97;5065613;28;20513;-79
2022/03/04 00:09:01;;;;;;;9.30;5.77;;;-0.70;99.90;;;0.20;99.77;98335.41;5066500;28;20487;-79
2022/03/04 00:11:29;;;;;;;8.90;6.10;;;-0.80;99.90;;;0.24;99.56;98339.41;5065711;28;20530;-79
2022/03/04 00:13:59;;;;;;;10.13;5.87;;;-0.70;99.90;;;0.25;99.74;98338.44;5066254;28;20460;-79
2022/03/04 00:16:27;;;;;;;8.90;6.23;;;-0.70;99.90;;;0.26;100.00;98345.22;5065034;28;20525;-79
2022/03/04 00:19:07;;;;;;;9.60;6.83;;;-0.70;99.90;;;0.25;99.86;98338.44;5066801;28;25332;-79
2022/03/04 00:21:38;;;;;;;9.90;6.93;;;-0.80;99.90;;;0.20;100.00;98345.69;5064510;28;20488;-79
2022/03/04 00:24:09;;;;;;;14.83;6.27;;;-0.80;99.90;;;0.21;100.00;98344.75;5068395;28;20470;-79
2022/03/04 00:26:38;;;;;;;11.17;6.03;;;-0.80;99.90;;;0.13;100.00;98341.94;5066899;28;20533;-79
2022/03/04 00:29:09;;;;;;;14.60;7.67;;;-0.90;99.90;;;0.17;100.00;98343.38;5065551;28;20974;-79
2022/03/04 00:31:39;;;;;;;9.93;5.00;;;-0.80;99.90;;;0.11;100.00;98336.09;5064879;28;20550;-79
2022/03/04 00:54:44;;;;;;;7.23;5.30;;;-1.00;99.90;;;-0.06;100.00;98349.38;5049497;28;20859;-79
2022/03/04 00:57:15;;;;;;;9.50;5.90;;;-1.00;99.90;;;-0.15;100.00;98350.06;5058249;28;20553;-79
2022/03/04 00:59:45;;;;;;;10.37;6.03;;;-1.10;99.90;;;-0.17;100.00;98345.03;5061998;28;20471;-79
2022/03/04 01:02:16;;;;;;;8.80;5.60;;;-1.10;99.90;;;-0.19;100.00;98346.91;5060583;28;20491;-79
2022/03/04 01:04:46;;;;;;;14.43;6.23;;;-1.20;99.90;;;-0.18;100.00;98342.59;5062514;28;20460;-79
2022/03/04 01:07:16;;;;;;;12.80;6.43;;;-1.20;99.90;;;-0.18;100.00;98340.84;5062914;28;20553;-79
2022/03/04 01:09:47;;;;;;;8.23;5.93;;;-1.20;99.90;;;-0.17;100.00;98339.06;5075448;28;20843;-79
2022/03/04 01:12:18;;;;;;;9.50;6.50;;;-1.10;99.90;;;-0.29;100.00;98338.22;5075810;28;20490;-79
2022/03/04 01:14:51;;;;;;;8.73;5.30;;;-1.30;99.90;;;-0.40;100.00;98340.75;5071871;28;20463;-79
2022/03/04 01:17:21;;;;;;;11.00;5.70;;;-1.50;99.90;;;-0.37;100.00;98344.84;5079437;28;20455;-79
2022/03/04 01:19:49;;;;;;;8.77;5.63;;;-1.40;99.90;;;-0.39;100.00;98337.25;5074441;28;20787;-80
2022/03/04 01:22:17;;;;;;;7.80;5.77;;;-1.50;99.90;;;-0.37;100.00;98342.28;5069873;28;20463;-79
2022/03/04 01:24:47;;;;;;;10.00;6.40;;;-1.50;99.90;;;-0.40;100.00;98335.63;5068484;28;20968;-79
2022/03/04 01:27:16;;;;;;;10.83;5.57;;;-1.50;99.90;;;-0.41;100.00;98335.72;5068378;28;20452;-79
2022/03/04 01:29:44;;;;;;;10.57;5.90;;;-1.40;99.90;;;-0.39;100.00;98339.84;5070582;28;20502;-79
2022/03/04 01:32:13;;;;;;;8.87;6.00;;;-1.40;99.90;;;-0.42;100.00;98344.38;5066051;28;20533;-79
2022/03/04 01:34:42;;;;;;;14.93;5.40;;;-1.50;99.90;;;-0.40;100.00;98339.94;5063617;28;20472;-78
2022/03/04 01:37:11;;;;;;;10.73;5.93;;;-1.40;99.90;;;-0.46;100.00;98340.38;5062266;28;20492;-79
2022/03/04 01:39:39;;;;;;;10.37;6.40;;;-1.50;99.90;;;-0.39;100.00;98341.56;5067786;28;20465;-79
2022/03/04 01:42:09;;;;;;;11.70;6.37;;;-1.40;99.90;;;-0.40;100.00;98338.19;5068070;28;20503;-78
2022/03/04 01:44:38;;;;;;;7.70;5.20;;;-1.40;99.90;;;-0.45;100.00;98342.03;5065808;28;20582;-79
2022/03/04 01:47:08;;;;;;;7.50;5.70;;;-1.40;99.90;;;-0.43;100.00;98335.84;5067074;28;20899;-79
2022/03/04 01:49:36;;;;;;;7.40;4.90;;;-1.40;99.90;;;-0.45;100.00;98336.88;5063884;28;20883;-79
2022/03/04 01:52:05;;;;;;;11.50;6.90;;;-1.50;99.90;;;-0.46;100.00;98342.94;5065799;28;21020;-79
2022/03/04 01:54:34;;;;;;;11.60;6.63;;;-1.40;99.90;;;-0.52;100.00;98336.50;5065456;28;20948;-78
2022/03/04 01:57:03;;;;;;;6.50;4.80;;;-1.50;99.90;;;-0.55;100.00;98336.72;5069106;28;20522;-79
2022/03/04 01:59:33;;;;;;;8.30;5.60;;;-1.50;99.90;;;-0.48;100.00;98342.22;5067396;28;20481;-78
2022/03/04 02:02:01;;;;;;;8.87;6.53;;;-1.40;99.90;;;-0.54;100.00;98334.06;5064658;28;20511;-79
2022/03/04 02:04:30;;;;;;;14.90;5.80;;;-1.40;99.90;;;-0.64;100.00;98333.06;5070163;28;20461;-79
2022/03/04 02:06:59;;;;;;;9.67;5.90;;;-1.60;99.90;;;-0.64;100.00;98343.34;5063647;28;20545;-79
2022/03/04 02:09:27;;;;;;;9.57;5.83;;;-1.60;99.90;;;-0.62;100.00;98338.91;5067506;28;20474;-79
2022/03/04 02:11:56;;;;;;;10.90;5.83;;;-1.60;99.90;;;-0.58;100.00;98335.19;5076239;28;20511;-79
2022/03/04 02:14:25;;;;;;;10.07;6.20;;;-1.50;99.90;;;-0.62;100.00;98333.78;5070155;28;20465;-79
2022/03/04 02:16:55;;;;;;;11.90;5.43;;;-1.50;99.90;;;-0.70;100.00;98341.22;5076164;28;20611;-78
2022/03/04 02:19:24;;;;;;;8.77;5.60;;;-1.60;99.90;;;-0.68;100.00;98341.09;5075736;28;20513;-79
2022/03/04 02:21:57;;;;;;;8.67;5.47;;;-1.60;99.90;;;-0.71;100.00;98331.88;5077181;28;20466;-79
2022/03/04 02:24:30;;;;;;;8.50;5.60;;;-1.70;99.90;;;-0.78;100.00;98335.81;5076951;28;20500;-79
2022/03/04 02:27:01;;;;;;;10.03;5.60;;;-1.80;99.90;;;-0.77;100.00;98332.31;5071189;28;20518;-79
2022/03/04 02:29:35;;;;;;;7.37;5.30;;;-1.80;99.90;;;-0.71;100.00;98341.31;5062462;28;21184;-79
2022/03/04 02:32:08;;;;;;;9.10;5.40;;;-1.70;99.90;;;-0.78;100.00;98340.94;5061684;28;20498;-79
2022/03/04 02:34:38;;;;;;;9.90;5.60;;;-1.70;99.90;;;-0.78;100.00;98340.94;5064035;28;20459;-79
2022/03/04 02:37:09;;;;;;;11.60;6.80;;;-1.80;99.90;;;-0.79;100.00;98338.47;5062572;28;20517;-79
2022/03/04 02:39:39;;;;;;;11.20;6.00;;;-1.80;99.90;;;-0.83;100.00;98347.34;5067802;28;20519;-78
2022/03/04 02:42:10;;;;;;;9.20;5.77;;;-1.70;99.90;;;-0.91;100.00;98329.09;5063417;28;20467;-79
2022/03/04 02:44:40;;;;;;;11.30;6.50;;;-1.80;99.90;;;-0.86;100.00;98335.53;5065020;28;20465;-79
2022/03/04 02:47:09;;;;;;;8.37;5.40;;;-1.80;99.90;;;-0.86;100.00;98325.25;5063876;28;20586;-79
2022/03/04 02:49:40;;;;;;;14.17;6.50;;;-1.70;99.90;;;-0.89;100.00;98333.19;5065631;28;20463;-78
2022/03/04 02:52:12;;;;;;;10.03;6.07;;;-1.70;99.90;;;-0.85;100.00;98333.78;5063917;28;21028;-79
2022/03/04 02:54:43;;;;;;;9.80;5.60;;;-1.70;99.90;;;-0.90;100.00;98328.16;5065608;28;20499;-78
2022/03/04 02:57:13;;;;;;;7.77;5.27;;;-1.70;99.90;;;-0.94;100.00;98330.13;5065150;28;20466;-79
2022/03/04 02:59:43;;;;;;;14.27;4.70;;;-1.80;99.90;;;-0.92;100.00;98325.69;5066391;28;20475;-78
2022/03/04 03:02:12;;;;;;;10.43;5.93;;;-1.80;99.90;;;-0.95;100.00;98323.34;5064879;28;21006;-79
2022/03/04 03:04:41;;;;;;;9.03;5.37;;;-1.90;99.90;;;-1.01;100.00;98328.94;5067736;28;20458;-79
2022/03/04 03:07:14;;;;;;;10.60;6.43;;;-1.90;99.90;;;-0.99;100.00;98326.25;5065726;28;20465;-79
2022/03/04 03:09:43;;;;;;;10.27;5.33;;;-1.90;99.90;;;-0.99;100.00;98326.25;5062606;28;20859;-79
2022/03/04 03:12:13;;;;;;;8.70;6.10;;;-1.90;99.90;;;-1.04;100.00;98323.97;5066862;28;20518;-79
2022/03/04 03:14:44;;;;;;;9.40;5.63;;;-2.00;99.90;;;-1.07;100.00;98319.06;5065393;28;21366;-79
2022/03/04 03:17:14;;;;;;;7.43;4.57;;;-2.00;99.90;;;-1.16;100.00;98319.72;5065249;28;20492;-79
2022/03/04 03:19:44;;;;;;;12.57;6.00;;;-2.10;99.90;;;-1.24;100.00;98319.44;5065492;28;20463;-79
2022/03/04 03:22:16;;;;;;;11.33;5.87;;;-2.20;99.90;;;-1.20;100.00;98313.16;5065014;28;20491;-79
2022/03/04 03:24:47;;;;;;;9.73;6.33;;;-2.20;99.90;;;-1.19;100.00;98312.25;5065994;28;20467;-79
2022/03/04 03:27:16;;;;;;;10.40;5.90;;;-2.10;99.90;;;-1.17;100.00;98310.38;5067430;28;20966;-79
2022/03/04 03:29:46;;;;;;;7.07;5.27;;;-2.00;99.90;;;-1.20;100.00;98315.72;5070953;28;20441;-79
2022/03/04 03:32:16;;;;;;;8.13;5.40;;;-2.10;99.90;;;-1.21;100.00;98311.53;5073928;28;20575;-79
2022/03/04 03:34:46;;;;;;;9.13;5.90;;;-2.00;99.90;;;-1.28;100.00;98311.13;5075315;28;20473;-79
2022/03/04 03:37:18;;;;;;;8.70;5.00;;;-2.20;99.90;;;-1.35;100.00;98319.34;5068753;28;20465;-79
2022/03/04 03:39:48;;;;;;;7.63;5.60;;;-2.30;99.90;;;-1.37;100.00;98322.03;5074045;28;20465;-78
2022/03/04 03:42:18;;;;;;;10.13;5.83;;;-2.30;99.90;;;-1.30;100.00;98313.00;5070053;28;20477;-79
2022/03/04 03:44:47;;;;;;;7.30;5.30;;;-2.20;99.90;;;-1.33;100.00;98313.22;5069517;28;20465;-79
2022/03/04 03:47:17;;;;;;;10.43;6.00;;;-2.20;99.90;;;-1.38;100.00;98319.56;5068542;28;21735;-79
2022/03/04 03:49:47;;;;;;;10.70;5.47;;;-2.30;99.90;;;-1.36;100.00;98318.56;5064799;28;20514;-79
2022/03/04 03:52:18;;;;;;;11.90;6.97;;;-2.30;99.90;;;-1.53;100.00;98313.78;5064386;28;20500;-79
2022/03/04 03:54:49;;;;;;;8.40;5.67;;;-2.50;99.90;;;-1.45;100.00;98321.75;5065520;28;20463;-79
2022/03/04 03:57:20;;;;;;;8.47;5.37;;;-2.40;99.90;;;-1.37;100.00;98322.03;5065850;28;20456;-79
2022/03/04 03:59:50;;;;;;;10.83;5.70;;;-2.30;99.90;;;-1.32;100.00;98308.91;5070061;28;20462;-79
2022/03/04 04:02:19;;;;;;;9.90;6.10;;;-2.20;99.90;;;-1.27;100.00;98311.97;5068010;28;20475;-78
2022/03/04 04:04:49;;;;;;;9.60;5.37;;;-2.20;99.90;;;-1.28;100.00;98311.13;5063428;28;20477;-78
2022/03/04 04:07:21;;;;;;;8.80;5.40;;;-2.20;99.90;;;-1.25;100.00;98315.25;5068418;28;20834;-79
2022/03/04 04:09:50;;;;;;;12.50;5.40;;;-2.10;99.90;;;-1.24;100.00;98316.88;5067363;28;20479;-79
2022/03/04 04:12:19;;;;;;;9.57;5.20;;;-2.20;99.90;;;-1.23;100.00;98318.53;5065541;28;20552;-79
2022/03/04 04:14:48;;;;;;;9.73;5.70;;;-2.10;99.90;;;-1.22;100.00;98320.16;5065989;28;20473;-78
2022/03/04 04:17:18;;;;;;;10.10;5.87;;;-2.10;99.90;;;-1.23;100.00;98318.53;5066871;28;20470;-78
2022/03/04 04:19:47;;;;;;;8.23;5.13;;;-2.20;99.90;;;-1.25;100.00;98315.25;5064371;28;21338;-79
2022/03/04 04:22:19;;;;;;;11.73;6.30;;;-2.20;99.90;;;-1.29;100.00;98313.81;5063888;28;20466;-79
2022/03/04 04:24:49;;;;;;;11.53;6.53;;;-2.10;99.90;;;-1.28;100.00;98307.75;5071003;28;20759;-79
2022/03/04 04:27:19;;;;;;;14.07;6.33;;;-2.20;99.90;;;-1.28;100.00;98310.31;5073043;28;20478;-79
2022/03/04 04:29:50;;;;;;;13.27;5.90;;;-2.20;99.90;;;-1.30;100.00;98309.59;5072872;28;20456;-79
2022/03/04 04:32:21;;;;;;;13.97;6.60;;;-2.30;99.90;;;-1.30;100.00;98317.31;5073524;28;20824;-79
2022/03/04 04:34:51;;;;;;;12.47;6.33;;;-2.30;99.90;;;-1.31;100.00;98313.09;5073782;28;20809;-79
2022/03/04 04:37:21;;;;;;;9.30;6.23;;;-2.20;99.90;;;-1.34;100.00;98321.81;5072050;28;20877;-79
2022/03/04 04:39:51;;;;;;;10.17;5.40;;;-2.30;99.90;;;-1.37;100.00;98306.66;5073691;28;20512;-79
2022/03/04 04:42:22;;;;;;;9.60;6.07;;;-2.30;99.90;;;-1.35;100.00;98312.47;5071625;28;20459;-79
2022/03/04 04:44:52;;;;;;;10.83;6.17;;;-2.30;99.90;;;-1.35;100.00;98309.91;5066030;28;20470;-79
2022/03/04 04:47:22;;;;;;;8.50;5.73;;;-2.30;99.90;;;-1.34;100.00;98318.44;5071979;28;20462;-79
2022/03/04 04:49:52;;;;;;;10.30;6.43;;;-2.20;99.90;;;-1.38;100.00;98312.69;5066173;28;20517;-79
2022/03/04 04:52:23;;;;;;;18.60;8.20;;;-2.20;99.90;;;-1.44;100.00;98323.38;5067899;28;20462;-79
2022/03/04 04:54:53;;;;;;;10.03;5.63;;;-2.10;99.90;;;-1.44;100.00;98325.13;5068980;28;20513;-80
2022/03/04 04:57:25;;;;;;;8.40;5.70;;;-2.30;99.90;;;-1.42;100.00;98325.88;5071834;28;20455;-80
2022/03/04 04:59:55;;;;;;;10.30;6.37;;;-2.30;99.90;;;-1.45;100.00;98331.16;5071702;28;20457;-80
2022/03/04 05:02:28;;;;;;;10.27;6.33;;;-2.30;99.90;;;-1.43;100.00;98337.03;5065228;28;20445;-81
2022/03/04 05:04:57;;;;;;;10.43;6.33;;;-2.30;99.90;;;-1.44;100.00;98348.19;5068331;28;20491;-81
2022/03/04 05:07:28;;;;;;;16.90;6.50;;;-2.30;99.90;;;-1.46;100.00;98356.03;5066609;28;20466;-80
2022/03/04 05:09:58;;;;;;;8.70;5.50;;;-2.30;99.90;;;-1.45;100.00;98354.25;5068752;28;20456;-82
2022/03/04 05:12:29;;;;;;;10.43;6.87;;;-2.30;99.90;;;-1.46;100.00;98352.63;5067804;28;20843;-80
2022/03/04 05:14:59;;;;;;;14.10;7.33;;;-2.40;99.90;;;-1.48;100.00;98372.41;5069498;28;20589;-81
2022/03/04 05:17:29;;;;;;;11.27;6.17;;;-2.40;99.90;;;-1.51;100.00;98370.88;5066829;28;20457;-81
2022/03/04 05:19:59;;;;;;;13.00;6.17;;;-2.50;99.90;;;-1.56;100.00;98368.63;5067951;28;20455;-81
2022/03/04 05:22:29;;;;;;;11.13;6.63;;;-2.50;99.90;;;-1.60;100.00;98362.06;5068013;28;20948;-81
2022/03/04 05:25:00;;;;;;;12.40;5.90;;;-2.50;99.90;;;-1.62;100.00;98371.59;5073928;28;20457;-81
2022/03/04 05:27:30;;;;;;;22.37;6.17;;;-2.50;99.90;;;-1.64;100.00;98373.47;5073582;28;20467;-81
2022/03/04 05:30:00;;;;;;;10.30;6.17;;;-2.50;99.90;;;-1.62;100.00;98373.34;5070826;28;20943;-81
2022/03/04 05:32:30;;;;;;;11.10;6.10;;;-2.50;99.90;;;-1.65;100.00;98371.81;5071919;28;20560;-81
2022/03/04 05:35:01;;;;;;;10.23;5.20;;;-2.50;99.90;;;-1.69;100.00;98378.06;5069885;28;20496;-81
2022/03/04 05:37:33;;;;;;;12.20;7.07;;;-2.50;99.90;;;-1.74;100.00;98375.00;5071933;28;20446;-81
2022/03/04 05:40:03;;;;;;;11.73;6.63;;;-2.60;99.90;;;-1.74;100.00;98382.69;5070814;28;20449;-82
2022/03/04 05:42:32;;;;;;;11.97;7.03;;;-2.60;99.90;;;-1.76;100.00;98384.53;5069555;28;20902;-81
2022/03/04 05:45:03;;;;;;;11.33;6.53;;;-2.60;99.90;;;-1.79;100.00;98382.16;5070773;28;20501;-80
2022/03/04 05:47:33;;;;;;;12.60;6.27;;;-2.60;99.90;;;-1.80;100.00;98380.50;5070601;28;20446;-81
2022/03/04 05:50:03;;;;;;;9.50;6.60;;;-2.70;99.90;;;-1.77;100.00;98379.50;5071341;28;20462;-82
2022/03/04 05:52:34;;;;;;;14.47;6.97;;;-2.70;99.90;;;-1.77;100.00;98390.56;5070427;28;20487;-81
2022/03/04 05:55:08;;;;;;;12.53;7.10;;;-2.70;99.90;;;-1.77;100.00;98388.00;5072713;28;21000;-81
2022/03/04 05:57:38;;;;;;;13.23;7.30;;;-2.70;99.90;;;-1.82;100.00;98390.06;5073380;28;20447;-81
2022/03/04 06:00:10;;;;;;;13.10;7.23;;;-2.80;99.90;;;-1.85;100.00;98392.81;5075859;28;20466;-80
2022/03/04 06:02:41;;;;;;;15.07;7.23;;;-2.80;99.90;;;-1.85;100.00;98395.38;5075514;28;20496;-81
2022/03/04 06:05:11;;;;;;;10.07;7.00;;;-2.80;99.90;;;-1.86;100.00;98395.47;5076913;28;20489;-81
2022/03/04 06:07:43;;;;;;;12.20;7.23;;;-2.90;99.90;;;-1.90;100.00;98404.28;5078377;28;20452;-81
2022/03/04 06:10:13;;;;;;;14.13;7.00;;;-2.90;99.90;;;-1.91;100.00;98403.50;5080097;28;20487;-81
2022/03/04 06:12:44;;;;;;;19.53;6.93;;;-2.90;99.90;;;-1.93;100.00;98402.75;5079974;28;20427;-81
2022/03/04 06:15:14;;;;;;;10.87;6.53;;;-2.90;99.90;;;-1.95;100.00;98406.34;5081813;28;20501;-81
2022/03/04 06:17:48;;;;;;;12.13;7.00;;;-2.90;99.90;;;-1.96;100.00;98410.63;5080229;28;20440;-81
2022/03/04 06:20:20;;;;;;;12.23;7.10;;;-2.90;99.90;;;-1.97;100.00;98408.16;5080515;28;21001;-81
2022/03/04 06:22:50;;;;;;;14.10;7.70;;;-3.00;99.90;;;-1.99;100.00;98410.84;5080277;28;20449;-81
2022/03/04 06:25:20;;;;;;;13.20;7.87;;;-3.00;99.90;;;-1.99;100.00;98420.25;5080487;28;20513;-81
2022/03/04 06:27:55;;;;;;;12.33;7.33;;;-2.90;99.90;;;-2.00;100.00;98427.13;5080800;28;20476;-81
2022/03/04 06:30:30;;;;;;;11.87;7.57;;;-2.90;99.90;;;-2.01;100.00;98428.03;5079158;28;20456;-81
2022/03/04 06:35:43;;;;;;;13.23;6.90;;;-3.00;99.90;;;-1.99;100.00;98439.03;5080921;28;20488;-81
2022/03/04 06:38:15;;;;;;;15.77;8.50;;;-2.80;99.90;;;-1.97;100.00;98436.34;5081358;28;20938;-81
2022/03/04 06:40:45;;;;;;;12.77;7.27;;;-2.90;99.90;;;-1.97;100.00;98444.84;5078975;28;20465;-81
2022/03/04 06:43:16;;;;;;;22.50;9.10;;;-2.90;99.90;;;-1.95;100.00;98439.66;5079602;28;20444;-81
2022/03/04 06:45:49;;;;;;;17.20;9.10;;;-2.80;99.90;;;-1.95;100.00;98443.03;5079183;28;20462;-81
2022/03/04 06:48:21;;;;;;;11.60;7.53;;;-2.90;99.90;;;-1.96;100.00;98430.31;5078164;28;20970;-81
2022/03/04 06:50:52;;;;;;;21.97;8.27;;;-2.90;99.90;;;-1.95;100.00;98440.47;5080199;28;20466;-81
2022/03/04 06:53:24;;;;;;;12.67;8.43;;;-2.90;99.90;;;-1.94;100.00;98442.09;5079995;28;20535;-81
2022/03/04 06:55:54;;;;;;;13.40;7.43;;;-2.90;99.90;;;-1.93;100.00;98430.94;5079924;28;20497;-81
2022/03/04 06:58:23;;;;;;;15.37;8.70;;;-2.90;99.90;;;-1.88;100.00;98440.88;5079386;28;20841;-80
2022/03/04 07:00:53;;;;;;;13.77;7.77;;;-2.80;99.90;;;-1.89;100.00;98436.69;5078920;28;20494;-81
2022/03/04 07:03:24;;;;;;;11.83;6.63;;;-2.80;99.90;;;-1.89;100.00;98434.94;5080407;28;20532;-82
2022/03/04 07:05:54;;;;;;;17.33;7.57;;;-2.80;99.90;;;-1.86;100.00;98444.97;5078562;28;20444;-81
2022/03/04 07:08:25;;;;;;;17.27;7.77;;;-2.80;99.90;;;-1.82;100.00;98449.00;5079567;28;21108;-81
2022/03/04 07:10:56;;;;;;;16.43;7.77;;;-2.60;99.90;;;-1.78;100.00;98450.44;5079066;28;20995;-81
2022/03/04 07:13:26;;;;;;;12.43;8.17;;;-2.60;99.90;;;-1.78;100.00;98447.88;5080051;28;20456;-82
2022/03/04 07:15:56;;;;;;;14.23;7.47;;;-2.50;99.90;;;-1.74;100.00;98451.88;5079280;28;20553;-81
2022/03/04 07:18:29;;;;;;;13.90;7.73;;;-2.60;99.90;;;-1.73;100.00;98461.19;5079815;28;20468;-81
2022/03/04 07:21:01;;;;;;;11.43;8.03;;;-2.60;99.90;;;-1.69;100.00;98454.94;5079982;28;20444;-81
2022/03/04 07:23:33;;;;;;;13.40;8.23;;;-2.60;99.90;;;-1.68;100.00;98453.22;5075685;28;20459;-81
2022/03/04 07:26:08;;;;;;;15.67;8.10;;;-2.60;99.90;;;-1.67;100.00;98458.25;5074295;28;20910;-81
2022/03/04 07:28:38;;;;;;;15.50;7.93;;;-2.60;99.90;;;-1.65;100.00;98461.53;5070548;28;20831;-81
2022/03/04 07:31:09;;;;;;;18.50;8.90;;;-2.50;99.90;;;-1.63;100.00;98461.41;5072343;28;20822;-81
2022/03/04 07:33:39;;;;;;;13.50;7.97;;;-2.60;99.90;;;-1.64;100.00;98470.03;5071077;28;20442;-81
2022/03/04 07:36:10;;;;;;;21.40;8.40;;;-2.60;99.90;;;-1.63;100.00;98469.09;5073498;28;20896;-81
2022/03/04 07:38:43;;;;;;;18.47;7.87;;;-2.60;99.90;;;-1.59;100.00;98473.09;5071233;28;20457;-82
2022/03/04 07:41:13;;;;;;;18.40;9.20;;;-2.50;99.90;;;-1.58;100.00;98473.00;5071858;28;20525;-81
2022/03/04 07:43:43;;;;;;;13.70;8.80;;;-2.40;99.90;;;-1.56;100.00;98476.28;5072486;28;20449;-80
2022/03/04 07:46:15;;;;;;;16.37;8.57;;;-2.40;99.90;;;-1.54;100.00;98474.47;5073259;28;20443;-81
2022/03/04 07:48:45;;;;;;;14.70;9.30;;;-2.30;99.90;;;-1.50;100.00;98475.06;5077339;28;20479;-81
2022/03/04 07:51:16;;;;;;;17.00;8.90;;;-2.30;99.90;;;-1.45;100.00;98470.44;5078607;28;20503;-81
2022/03/04 07:53:48;;;;;;;13.77;9.03;;;-2.30;99.90;;;-1.41;100.00;98474.47;5077530;28;20456;-81
2022/03/04 07:56:17;;;;;;;16.77;10.20;;;-2.20;99.90;;;-1.37;100.00;98475.06;5079148;28;21007;-81
2022/03/04 07:58:46;;;;;;;17.60;9.90;;;-2.10;99.90;;;-1.34;100.00;98472.31;5078488;28;20462;-81
2022/03/04 08:01:35;;;;;;;18.80;9.03;;;-2.10;99.90;;;-1.32;100.00;98478.16;5078195;28;20458;-81
2022/03/04 08:04:08;;;;;;;18.70;9.43;;;-1.90;99.90;;;-1.24;100.00;98475.88;5077574;28;20879;-81
2022/03/04 08:06:38;;;;;;;16.83;9.57;;;-2.00;99.90;;;-1.17;100.00;98477.13;5077376;28;20769;-82
2022/03/04 08:09:10;;;;;;;20.70;10.90;;;-1.90;99.90;;;-1.13;100.00;98478.56;5078307;28;20984;-81
2022/03/04 08:11:44;;;;;;;20.33;10.13;;;-1.90;99.90;;;-1.11;100.00;98469.03;5077674;28;20813;-81
2022/03/04 08:14:14;;;;;;;20.80;10.90;;;-1.80;99.90;;;-1.05;100.00;98486.56;5078213;28;20457;-81
2022/03/04 08:16:45;;;;;;;22.33;11.07;;;-1.80;99.90;;;-0.98;100.00;98485.22;5077864;28;20619;-81
2022/03/04 08:19:16;;;;;;;18.50;10.70;;;-1.60;99.90;;;-0.92;100.00;98482.25;5077414;28;20458;-81
2022/03/04 08:21:47;;;;;;;30.70;13.90;;;-1.50;99.90;;;-0.81;100.00;98490.03;5078288;28;20715;-81
2022/03/04 08:24:18;;;;;;;23.80;13.33;;;-1.50;99.90;;;-0.70;100.00;98487.56;5078534;28;20445;-81
2022/03/04 08:26:48;;;;;;;25.17;13.87;;;-1.30;99.90;;;-0.54;100.00;98495.81;5078592;28;20455;-80
2022/03/04 08:29:18;;;;;;;31.13;14.57;;;-1.20;99.90;;;-0.39;100.00;98487.97;5075896;28;20874;-81
2022/03/04 08:31:48;;;;;;;27.43;15.50;;;-1.10;99.90;;;-0.28;100.00;98493.19;5076824;28;20442;-81
2022/03/04 08:34:18;;;;;;;25.93;13.57;;;-0.90;99.90;;;-0.17;100.00;98500.94;5076416;28;20442;-82
2022/03/04 08:36:50;;;;;;;24.87;13.63;;;-0.80;99.90;;;-0.09;100.00;98494.34;5077800;28;20622;-82
2022/03/04 08:39:22;;;;;;;24.03;12.00;;;-0.70;99.90;;;0.02;100.00;98497.88;5078402;28;20447;-81
2022/03/04 08:41:52;;;;;;;28.57;13.40;;;-0.60;99.90;;;0.13;100.00;98498.75;5076156;28;20958;-81
2022/03/04 08:44:23;;;;;;;25.53;12.90;;;-0.50;99.90;;;0.27;100.00;98502.91;5077814;28;20444;-81
2022/03/04 08:46:53;;;;;;;29.83;14.47;;;-0.40;99.90;;;0.37;100.00;98501.28;5075664;28;20452;-82
2022/03/04 08:49:23;;;;;;;22.43;13.00;;;-0.30;99.90;;;0.45;100.00;98501.56;5077732;28;20556;-81
2022/03/04 08:51:54;;;;;;;23.93;13.77;;;-0.20;99.90;;;0.54;100.00;98502.63;5077806;28;20879;-81
2022/03/04 08:54:25;;;;;;;22.10;12.90;;;0.00;99.90;;;0.61;100.00;98503.81;5077071;28;21030;-82
2022/03/04 08:56:55;;;;;;;31.23;14.33;;;0.00;99.90;;;0.67;100.00;98495.63;5075805;28;20495;-82
2022/03/04 08:59:24;;;;;;;25.53;14.23;;;0.10;99.90;;;0.75;100.00;98495.88;5076733;28;20474;-81
2022/03/04 09:01:56;;;;;;;24.17;12.90;;;0.20;99.90;;;0.80;100.00;98494.59;5077097;28;21081;-81
2022/03/04 09:04:26;;;;;;;28.53;13.37;;;0.20;99.90;;;0.87;100.00;98500.09;5071313;28;20464;-81
2022/03/04 09:06:56;;;;;;;47.43;14.77;;;0.30;99.90;;;0.92;100.00;98503.97;5072855;28;20894;-81
2022/03/04 09:09:28;;;;;;;27.23;14.60;;;0.40;99.90;;;1.00;100.00;98504.25;5073329;28;20453;-81
2022/03/04 09:11:58;;;;;;;26.10;12.70;;;0.40;99.90;;;1.08;100.00;98498.47;5071849;28;20525;-81
2022/03/04 09:14:27;;;;;;;24.20;13.50;;;0.50;99.90;;;1.14;100.00;98500.63;5073798;28;20795;-81
2022/03/04 09:16:57;;;;;;;24.93;11.63;;;0.60;99.90;;;1.22;100.00;98495.69;5069782;28;20500;-81
2022/03/04 09:19:30;;;;;;;24.47;12.90;;;0.70;99.90;;;1.29;100.00;98489.13;5072643;28;20440;-81
2022/03/04 09:22:22;;;;;;;24.97;13.57;;;0.70;99.90;;;1.37;100.00;98484.22;5071329;28;21008;-81
2022/03/04 09:24:54;;;;;;;22.00;12.90;;;0.70;99.90;;;1.42;100.00;98479.50;5073227;28;20441;-81
2022/03/04 09:27:24;;;;;;;22.70;13.60;;;0.80;99.90;;;1.48;100.00;98479.03;5071312;28;20456;-81
2022/03/04 09:29:53;;;;;;;30.03;14.00;;;0.90;99.90;;;1.53;100.00;98479.50;5071060;28;20480;-81
2022/03/04 09:32:24;;;;;;;25.13;13.00;;;0.90;99.90;;;1.57;100.00;98472.34;5074916;28;20964;-81
2022/03/04 09:34:54;;;;;;;25.70;13.43;;;1.00;99.90;;;1.61;100.00;98476.31;5076407;28;21014;-81
2022/03/04 09:37:24;;;;;;;24.80;13.67;;;0.90;99.90;;;1.66;100.00;98479.38;5075391;28;20503;-81
2022/03/04 09:39:55;;;;;;;27.90;14.53;;;1.00;99.90;;;1.72;100.00;98478.06;5073581;28;20562;-81
2022/03/04 09:42:27;;;;;;;21.37;12.70;;;1.10;99.90;;;1.76;100.00;98476.88;5073726;28;20444;-81
2022/03/04 09:44:57;;;;;;;23.77;13.43;;;1.10;99.90;;;1.81;100.00;98474.75;5074401;28;20442;-81
2022/03/04 09:47:28;;;;;;;27.17;14.27;;;1.20;99.90;;;1.86;100.00;98475.19;5077871;28;20535;-81
2022/03/04 09:50:01;;;;;;;49.60;13.70;;;1.20;99.90;;;1.91;100.00;98473.06;5079444;28;20977;-82
2022/03/04 09:52:31;;;;;;;29.63;14.87;;;1.40;99.90;;;1.98;100.00;98474.22;5081086;28;20536;-81
2022/03/04 09:55:02;;;;;;;24.17;13.20;;;1.50;99.90;;;2.07;100.00;98472.66;5081155;28;20993;-81
2022/03/04 09:57:31;;;;;;;24.77;15.43;;;1.60;99.90;;;2.16;100.00;98472.75;5081034;28;20516;-81
2022/03/04 10:00:04;;;;;;;26.70;13.20;;;1.70;99.90;;;2.24;100.00;98472.13;5080535;28;20465;-82
2022/03/04 10:02:34;;;;;;;29.13;14.13;;;1.80;99.90;;;2.31;100.00;98473.28;5080780;28;21030;-81
2022/03/04 10:05:06;;;;;;;25.33;14.43;;;1.90;99.90;;;2.37;100.00;98473.59;5080647;28;20874;-81
2022/03/04 10:07:42;;;;;;;24.93;13.53;;;1.90;99.90;;;2.43;100.00;98475.66;5081470;28;20454;-81
2022/03/04 10:10:15;;;;;;;30.40;14.33;;;2.00;99.90;;;2.48;100.00;98468.38;5080540;28;20456;-81
2022/03/04 10:12:51;;;;;;;23.20;13.73;;;2.00;99.90;;;2.56;100.00;98464.34;5080000;28;20809;-81
2022/03/04 10:15:22;;;;;;;25.30;14.17;;;2.00;99.90;;;2.62;99.09;98458.66;5080932;28;20532;-82
2022/03/04 10:18:04;;;;;;;26.80;13.27;;;2.10;99.90;;;2.68;99.21;98463.31;5079586;28;20514;-81
2022/03/04 10:20:37;;;;;;;21.63;12.63;;;2.20;99.90;;;2.72;99.22;98470.69;5081166;28;20987;-81
2022/03/04 10:23:19;;;;;;;26.30;13.23;;;2.20;99.90;;;2.79;98.17;98466.66;5079706;28;20473;-81
2022/03/04 10:25:54;;;;;;;25.93;12.30;;;2.30;99.90;;;2.86;95.96;98469.53;5079001;28;21005;-81
2022/03/04 10:28:27;;;;;;;26.10;13.47;;;2.40;99.90;;;2.91;95.57;98470.81;5079374;28;20450;-81
2022/03/04 10:30:59;;;;;;;28.53;12.33;;;2.40;99.90;;;2.97;95.31;98472.88;5079550;28;20454;-81
2022/03/04 10:33:48;;;;;;;24.37;13.90;;;2.50;99.90;;;3.04;93.87;98465.41;5080005;28;20462;-82
2022/03/04 10:36:19;;;;;;;20.80;12.40;;;2.50;99.90;;;3.10;94.52;98469.22;5079741;28;20518;-81
2022/03/04 10:39:09;;;;;;;28.73;12.60;;;2.60;99.90;;;3.15;94.56;98473.06;5079907;28;20509;-81
2022/03/04 10:41:50;;;;;;;22.90;13.13;;;2.60;99.90;;;3.23;93.42;98465.47;5078459;28;20498;-81
2022/03/04 10:44:30;;;;;;;20.27;12.20;;;2.70;99.90;;;3.27;93.23;98461.69;5079434;28;20531;-82
2022/03/04 10:47:01;;;;;;;21.00;12.30;;;2.70;99.90;;;3.32;92.59;98463.88;5077400;28;20982;-82
2022/03/04 10:49:31;;;;;;;35.60;14.10;;;2.80;99.90;;;3.40;90.78;98458.88;5079734;28;20473;-81